createdAt,value
2022-11-12T00:00:54.539Z,7.50
2022-11-12T00:03:21.363Z,7.57
2022-11-12T00:05:49.547Z,7.50
2022-11-12T00:08:17.207Z,7.46
2022-11-12T00:10:44.571Z,7.48
2022-11-12T00:13:11.534Z,7.38
2022-11-12T00:15:38.575Z,7.20
2022-11-12T00:18:05.388Z,7.17
2022-11-12T00:20:31.998Z,7.24
2022-11-12T00:22:59.546Z,7.18
2022-11-12T00:25:26.264Z,7.11
2022-11-12T00:27:52.817Z,7.24
2022-11-12T00:30:19.717Z,7.23
2022-11-12T00:32:46.525Z,7.39
2022-11-12T00:35:14.190Z,7.43
2022-11-12T00:37:41.108Z,7.35
2022-11-12T00:40:08.784Z,7.42
2022-11-12T00:42:35.871Z,7.35
2022-11-12T00:45:02.670Z,7.30
2022-11-12T00:47:29.287Z,7.47
2022-11-12T00:49:55.914Z,7.51
2022-11-12T00:52:22.538Z,7.52
2022-11-12T00:54:49.295Z,7.33
2022-11-12T00:57:16.099Z,7.26
2022-11-12T00:59:42.685Z,7.32
2022-11-12T01:02:09.638Z,7.11
2022-11-12T01:04:36.553Z,7.27
2022-11-12T01:07:03.228Z,7.35
2022-11-12T01:09:30.048Z,7.29
2022-11-12T01:11:56.739Z,7.50
2022-11-12T01:14:23.388Z,7.60
2022-11-12T01:16:50.010Z,7.62
2022-11-12T01:19:16.803Z,7.68
2022-11-12T01:21:44.626Z,7.68
2022-11-12T01:24:11.814Z,7.68
2022-11-12T01:26:39.315Z,7.68
2022-11-12T01:29:06.464Z,7.70
2022-11-12T01:31:36.010Z,7.60
2022-11-12T01:34:08.192Z,7.85
2022-11-12T01:36:38.173Z,7.87
2022-11-12T01:39:06.470Z,7.94
2022-11-12T01:41:36.799Z,7.93
2022-11-12T01:44:07.509Z,7.88
2022-11-12T01:46:37.479Z,7.90
2022-11-12T01:49:09.126Z,7.97
2022-11-12T01:51:41.035Z,8.08
2022-11-12T01:54:10.892Z,7.94
2022-11-12T01:56:42.242Z,7.96
2022-11-12T01:59:16.759Z,8.15
2022-11-12T02:01:43.419Z,7.89
2022-11-12T02:04:11.231Z,7.98
2022-11-12T02:06:41.118Z,7.99
2022-11-12T02:09:07.746Z,8.00
2022-11-12T02:11:34.330Z,7.87
2022-11-12T02:14:01.602Z,7.85
2022-11-12T02:16:29.495Z,7.79
2022-11-12T02:18:56.180Z,7.75
2022-11-12T02:21:24.421Z,7.71
2022-11-12T02:24:17.980Z,7.77
2022-11-12T02:26:47.673Z,7.83
2022-11-12T02:29:14.314Z,7.77
2022-11-12T02:31:40.893Z,7.83
2022-11-12T02:34:07.482Z,7.75
2022-11-12T02:36:34.107Z,7.56
2022-11-12T02:39:00.680Z,7.64
2022-11-12T02:41:27.360Z,7.71
2022-11-12T02:43:53.954Z,7.88
2022-11-12T02:46:20.739Z,7.84
2022-11-12T02:48:47.328Z,7.90
2022-11-12T02:51:14.199Z,7.90
2022-11-12T02:53:40.933Z,8.06
2022-11-12T02:56:07.857Z,8.11
2022-11-12T02:58:34.547Z,8.06
2022-11-12T03:01:01.412Z,7.97
2022-11-12T03:03:28.210Z,7.91
2022-11-12T03:06:00.869Z,8.15
2022-11-12T03:08:28.137Z,8.07
2022-11-12T03:10:55.000Z,8.18
2022-11-12T03:13:21.715Z,8.23
2022-11-12T03:15:48.522Z,8.23
2022-11-12T03:18:15.305Z,8.23
2022-11-12T03:20:42.353Z,8.13
2022-11-12T03:23:11.000Z,8.07
2022-11-12T03:25:38.191Z,7.91
2022-11-12T03:28:07.796Z,7.85
2022-11-12T03:30:37.434Z,7.87
2022-11-12T03:33:05.364Z,7.85
2022-11-12T03:35:33.789Z,7.83
2022-11-12T03:38:01.394Z,7.71
2022-11-12T03:40:28.973Z,7.58
2022-11-12T03:42:55.637Z,7.47
2022-11-12T03:45:25.116Z,7.47
2022-11-12T03:47:57.425Z,7.41
2022-11-12T03:50:25.893Z,7.33
2022-11-12T03:52:54.975Z,7.17
2022-11-12T03:55:23.840Z,7.21
2022-11-12T03:57:52.188Z,7.18
2022-11-12T04:00:19.913Z,7.18
2022-11-12T04:02:46.958Z,6.75
2022-11-12T04:05:32.783Z,6.77
2022-11-12T04:08:20.163Z,6.80
2022-11-12T04:10:46.871Z,6.55
2022-11-12T04:13:28.885Z,6.65
2022-11-12T04:16:29.308Z,6.49
2022-11-12T04:19:16.218Z,6.45
2022-11-12T04:22:14.489Z,6.44
2022-11-12T04:25:01.094Z,6.17
2022-11-12T04:27:31.180Z,5.99
2022-11-12T04:30:16.761Z,6.11
2022-11-12T04:32:54.874Z,6.01
2022-11-12T04:35:26.418Z,5.92
2022-11-12T04:37:55.316Z,5.80
2022-11-12T04:40:45.445Z,5.66
2022-11-12T04:43:32.988Z,5.57
2022-11-12T04:46:00.804Z,5.38
2022-11-12T04:48:28.555Z,5.36
2022-11-12T04:51:04.035Z,5.45
2022-11-12T04:53:31.364Z,5.64
2022-11-12T04:55:59.547Z,5.76
2022-11-12T04:58:26.539Z,5.94
2022-11-12T05:00:53.560Z,6.10
2022-11-12T05:03:20.733Z,5.97
2022-11-12T05:05:47.325Z,6.25
2022-11-12T05:08:13.914Z,6.25
2022-11-12T05:10:40.681Z,6.35
2022-11-12T05:13:07.997Z,6.32
2022-11-12T05:15:34.626Z,6.23
2022-11-12T05:18:01.322Z,6.18
2022-11-12T05:20:27.986Z,6.30
2022-11-12T05:23:06.096Z,6.28
2022-11-12T05:25:35.744Z,6.23
2022-11-12T05:28:02.486Z,6.22
2022-11-12T05:30:29.315Z,6.25
2022-11-12T05:32:56.056Z,6.23
2022-11-12T05:35:22.753Z,6.23
2022-11-12T05:37:49.536Z,6.09
2022-11-12T05:40:16.224Z,6.21
2022-11-12T05:42:42.830Z,6.14
2022-11-12T05:45:09.667Z,5.99
2022-11-12T05:47:36.731Z,6.08
2022-11-12T05:50:03.701Z,6.42
2022-11-12T05:52:30.288Z,6.54
2022-11-12T05:54:56.891Z,6.52
2022-11-12T05:57:23.454Z,6.50
2022-11-12T05:59:50.169Z,6.51
2022-11-12T06:02:16.995Z,6.42
2022-11-12T06:04:43.701Z,6.40
2022-11-12T06:07:10.282Z,6.26
2022-11-12T06:09:37.010Z,6.26
2022-11-12T06:12:06.909Z,6.26
2022-11-12T06:14:33.857Z,6.41
2022-11-12T06:17:01.359Z,6.64
2022-11-12T06:19:27.899Z,6.75
2022-11-12T06:21:54.700Z,6.85
2022-11-12T06:24:21.504Z,7.13
2022-11-12T06:26:48.144Z,7.63
2022-11-12T06:29:14.902Z,8.13
2022-11-12T06:31:41.508Z,8.32
2022-11-12T06:34:08.231Z,8.53
2022-11-12T06:36:35.398Z,8.68
2022-11-12T06:39:02.053Z,8.70
2022-11-12T06:41:28.685Z,8.84
2022-11-12T06:43:55.316Z,8.82
2022-11-12T06:46:22.003Z,8.85
2022-11-12T06:48:48.629Z,8.68
2022-11-12T06:51:20.869Z,8.57
2022-11-12T06:53:47.531Z,8.25
2022-11-12T06:56:14.566Z,7.99
2022-11-12T06:58:41.875Z,8.03
2022-11-12T07:01:14.969Z,8.07
2022-11-12T07:03:44.054Z,8.31
2022-11-12T07:06:19.201Z,8.42
2022-11-12T07:08:50.281Z,8.43
2022-11-12T07:11:18.261Z,8.79
2022-11-12T07:13:46.173Z,8.74
2022-11-12T07:16:14.254Z,8.71
2022-11-12T07:18:40.873Z,8.52
2022-11-12T07:21:10.472Z,8.66
2022-11-12T07:23:37.692Z,8.61
2022-11-12T07:26:07.597Z,8.34
2022-11-12T07:28:34.658Z,8.46
2022-11-12T07:31:06.828Z,8.58
2022-11-12T07:33:34.282Z,8.67
2022-11-12T07:36:01.827Z,8.79
2022-11-12T07:38:29.942Z,8.72
2022-11-12T07:41:05.655Z,8.77
2022-11-12T07:43:33.679Z,8.83
2022-11-12T07:46:10.321Z,8.81
2022-11-12T07:48:37.966Z,8.81
2022-11-12T07:51:07.612Z,8.77
2022-11-12T07:53:34.602Z,8.82
2022-11-12T07:56:02.417Z,8.61
2022-11-12T07:58:31.641Z,8.72
2022-11-12T08:00:58.963Z,8.76
2022-11-12T08:03:26.095Z,8.49
2022-11-12T08:05:52.780Z,8.53
2022-11-12T08:08:19.376Z,8.47
2022-11-12T08:10:46.139Z,8.46
2022-11-12T08:13:12.765Z,8.46
2022-11-12T08:15:39.374Z,8.55
2022-11-12T08:18:06.154Z,8.57
2022-11-12T08:20:32.801Z,8.59
2022-11-12T08:23:00.451Z,8.74
2022-11-12T08:25:27.303Z,8.71
2022-11-12T08:27:58.606Z,8.83
2022-11-12T08:30:27.193Z,8.86
2022-11-12T08:33:01.662Z,8.85
2022-11-12T08:35:29.385Z,8.74
2022-11-12T08:38:03.968Z,8.80
2022-11-12T08:40:32.292Z,8.83
2022-11-12T08:43:04.830Z,8.67
2022-11-12T08:45:39.731Z,8.68
2022-11-12T08:48:12.548Z,8.83
2022-11-12T08:50:39.204Z,8.56
2022-11-12T08:53:11.290Z,8.87
2022-11-12T08:55:38.258Z,8.78
2022-11-12T08:58:05.440Z,8.78
2022-11-12T09:00:35.321Z,8.88
2022-11-12T09:03:03.157Z,8.76
2022-11-12T09:05:30.194Z,8.94
2022-11-12T09:08:05.400Z,8.87
2022-11-12T09:10:32.955Z,8.86
2022-11-12T09:12:59.844Z,8.96
2022-11-12T09:15:42.466Z,9.15
2022-11-12T09:18:14.383Z,8.94
2022-11-12T09:20:41.562Z,8.94
2022-11-12T09:23:10.972Z,8.93
2022-11-12T09:25:37.651Z,9.00
2022-11-12T09:28:12.681Z,8.80
2022-11-12T09:30:43.686Z,8.88
2022-11-12T09:33:10.623Z,8.91
2022-11-12T09:35:37.218Z,8.93
2022-11-12T09:38:03.787Z,8.75
2022-11-12T09:40:51.671Z,8.76
2022-11-12T09:43:27.472Z,8.81
2022-11-12T09:46:13.865Z,8.69
2022-11-12T09:48:53.505Z,8.76
2022-11-12T09:51:30.923Z,8.98
2022-11-12T09:54:19.198Z,8.61
2022-11-12T09:56:48.392Z,8.61
2022-11-12T09:59:15.987Z,8.68
2022-11-12T10:02:26.062Z,8.93
2022-11-12T10:05:29.880Z,9.12
2022-11-12T10:08:24.045Z,9.21
2022-11-12T10:11:09.676Z,9.49
2022-11-12T10:13:48.266Z,9.45
2022-11-12T10:16:57.762Z,9.13
2022-11-12T10:19:50.017Z,9.01
2022-11-12T10:22:28.950Z,9.11
2022-11-12T10:24:56.933Z,8.82
2022-11-12T10:27:40.422Z,8.79
2022-11-12T10:30:17.107Z,8.82
2022-11-12T10:32:48.768Z,8.75
2022-11-12T10:35:22.143Z,8.64
2022-11-12T10:37:59.125Z,8.58
2022-11-12T10:40:31.194Z,8.37
2022-11-12T10:43:00.838Z,8.53
2022-11-12T10:45:27.947Z,8.67
2022-11-12T10:47:55.018Z,8.68
2022-11-12T10:50:28.862Z,8.67
2022-11-12T10:52:58.626Z,8.54
2022-11-12T10:55:35.218Z,8.46
2022-11-12T10:58:20.955Z,8.47
2022-11-12T11:01:02.598Z,8.46
2022-11-12T11:03:36.080Z,8.50
2022-11-12T11:06:18.380Z,8.54
2022-11-12T11:08:51.154Z,8.40
2022-11-12T11:11:29.554Z,8.52
2022-11-12T11:14:17.616Z,8.67
2022-11-12T11:17:00.356Z,8.68
2022-11-12T11:19:35.217Z,8.86
2022-11-12T11:22:18.107Z,8.78
2022-11-12T11:25:28.076Z,8.87
2022-11-12T11:28:30.198Z,8.82
2022-11-12T11:31:07.529Z,8.81
2022-11-12T11:33:51.851Z,8.71
2022-11-12T11:36:32.970Z,8.73
2022-11-12T11:39:10.826Z,8.62
2022-11-12T11:41:56.650Z,8.78
2022-11-12T11:44:38.884Z,8.70
2022-11-12T11:47:11.272Z,8.62
2022-11-12T11:49:40.799Z,8.65
2022-11-12T11:52:26.814Z,8.53
2022-11-12T11:55:21.060Z,8.48
2022-11-12T11:58:24.972Z,8.36
2022-11-12T12:01:17.365Z,8.30
2022-11-12T12:04:06.957Z,8.29
2022-11-12T12:06:48.934Z,8.08
2022-11-12T12:09:31.835Z,8.38
2022-11-12T12:12:12.175Z,8.45
2022-11-12T12:15:11.331Z,8.35
2022-11-12T12:18:01.752Z,8.46
2022-11-12T12:20:34.429Z,8.58
2022-11-12T12:23:06.539Z,8.71
2022-11-12T12:25:38.190Z,8.74
2022-11-12T12:28:16.570Z,8.76
2022-11-12T12:30:50.384Z,8.79
2022-11-12T12:33:39.901Z,8.78
2022-11-12T12:36:40.034Z,8.69
2022-11-12T12:39:19.862Z,8.73
2022-11-12T12:41:56.731Z,8.83
2022-11-12T12:44:44.641Z,8.87
2022-11-12T12:47:14.210Z,8.82
2022-11-12T12:49:42.983Z,8.25
2022-11-12T12:52:13.909Z,8.79
2022-11-12T12:54:40.688Z,8.82
2022-11-12T12:57:28.704Z,8.92
2022-11-12T13:00:32.254Z,9.03
2022-11-12T13:02:58.972Z,8.85
2022-11-12T13:05:33.259Z,8.91
2022-11-12T13:08:13.285Z,8.93
2022-11-12T13:10:40.033Z,8.76
2022-11-12T13:13:19.378Z,8.63
2022-11-12T13:15:53.256Z,8.53
2022-11-12T13:18:38.099Z,8.48
2022-11-12T13:21:11.876Z,8.29
2022-11-12T13:24:07.102Z,8.32
2022-11-12T13:26:39.521Z,8.19
2022-11-12T13:29:22.693Z,8.13
2022-11-12T13:31:49.268Z,8.04
2022-11-12T13:34:23.031Z,8.06
2022-11-12T13:37:05.021Z,7.96
2022-11-12T13:39:36.477Z,8.05
2022-11-12T13:42:34.295Z,8.05
2022-11-12T13:45:01.265Z,7.95
2022-11-12T13:47:29.515Z,8.03
2022-11-12T13:50:01.302Z,8.23
2022-11-12T13:52:29.323Z,8.13
2022-11-12T13:55:12.941Z,8.19
2022-11-12T13:57:39.687Z,8.02
2022-11-12T14:00:18.462Z,8.11
2022-11-12T14:02:49.781Z,7.99
2022-11-12T14:05:19.230Z,8.20
2022-11-12T14:08:43.145Z,8.29
2022-11-12T14:11:34.032Z,8.28
2022-11-12T14:14:12.270Z,8.32
2022-11-12T14:17:02.553Z,8.26
2022-11-12T14:20:06.225Z,8.29
2022-11-12T14:22:40.965Z,8.30
2022-11-12T14:25:15.657Z,8.27
2022-11-12T14:27:42.882Z,8.40
2022-11-12T14:30:12.674Z,8.48
2022-11-12T14:32:42.959Z,8.50
2022-11-12T14:35:34.037Z,8.48
2022-11-12T14:38:14.440Z,8.46
2022-11-12T14:41:03.346Z,8.50
2022-11-12T14:43:35.487Z,8.36
2022-11-12T14:46:04.588Z,8.51
2022-11-12T14:48:48.345Z,8.56
2022-11-12T14:51:16.454Z,8.56
2022-11-12T14:53:51.380Z,8.49
2022-11-12T14:56:36.363Z,8.46
2022-11-12T14:59:04.826Z,8.45
2022-11-12T15:02:20.670Z,8.51
2022-11-12T15:04:26.556Z,8.48
2022-11-12T15:06:55.324Z,8.30
2022-11-12T15:09:38.688Z,8.34
2022-11-12T15:12:09.618Z,8.42
2022-11-12T15:14:36.507Z,8.42
2022-11-12T15:17:05.713Z,8.46
2022-11-12T15:19:32.461Z,8.43
2022-11-12T15:22:02.010Z,8.32
2022-11-12T15:24:39.144Z,8.36
2022-11-12T15:27:33.908Z,8.31
2022-11-12T15:30:33.236Z,8.31
2022-11-12T15:33:15.981Z,8.18
2022-11-12T15:35:45.157Z,8.26
2022-11-12T15:38:19.392Z,8.21
2022-11-12T15:40:47.063Z,8.02
2022-11-12T15:43:26.080Z,8.06
2022-11-12T15:45:54.736Z,8.03
2022-11-12T15:48:21.852Z,8.03
2022-11-12T15:50:49.252Z,7.98
2022-11-12T15:53:16.418Z,8.01
2022-11-12T15:55:44.280Z,8.03
2022-11-12T15:58:30.589Z,8.01
2022-11-12T16:00:58.183Z,7.94
2022-11-12T16:03:25.200Z,8.06
2022-11-12T16:05:52.098Z,8.05
2022-11-12T16:08:19.401Z,7.93
2022-11-12T16:10:47.433Z,7.96
2022-11-12T16:13:26.109Z,8.10
2022-11-12T16:15:53.493Z,8.09
2022-11-12T16:18:20.700Z,8.07
2022-11-12T16:20:48.642Z,8.08
2022-11-12T16:23:15.992Z,8.14
2022-11-12T16:25:44.163Z,7.97
2022-11-12T16:28:16.150Z,8.08
2022-11-12T16:30:44.767Z,8.00
2022-11-12T16:33:12.863Z,7.82
2022-11-12T16:35:40.845Z,7.92
2022-11-12T16:38:16.164Z,8.00
2022-11-12T16:40:43.681Z,8.12
2022-11-12T16:43:10.671Z,8.12
2022-11-12T16:45:42.749Z,8.10
2022-11-12T16:48:21.939Z,8.14
2022-11-12T16:50:49.047Z,8.08
2022-11-12T16:53:15.864Z,8.05
2022-11-12T16:55:42.441Z,7.84
2022-11-12T16:58:13.830Z,7.90
2022-11-12T17:00:44.396Z,7.91
2022-11-12T17:03:14.609Z,7.80
2022-11-12T17:05:41.372Z,7.77
2022-11-12T17:08:09.897Z,7.77
2022-11-12T17:10:36.678Z,7.57
2022-11-12T17:13:03.475Z,7.69
2022-11-12T17:15:30.061Z,7.71
2022-11-12T17:17:56.646Z,7.59
2022-11-12T17:20:23.644Z,7.76
2022-11-12T17:22:50.283Z,7.57
2022-11-12T17:25:17.236Z,7.56
2022-11-12T17:27:43.838Z,7.53
2022-11-12T17:30:12.042Z,7.52
2022-11-12T17:32:39.004Z,7.49
2022-11-12T17:35:06.171Z,7.34
2022-11-12T17:37:32.810Z,7.50
2022-11-12T17:39:59.718Z,7.54
2022-11-12T17:42:26.374Z,7.48
2022-11-12T17:44:53.102Z,7.42
2022-11-12T17:47:19.756Z,7.42
2022-11-12T17:49:46.765Z,7.44
2022-11-12T17:52:13.527Z,7.54
2022-11-12T17:54:40.435Z,7.55
2022-11-12T17:57:07.059Z,7.52
2022-11-12T17:59:34.011Z,7.49
2022-11-12T18:02:00.966Z,7.54
2022-11-12T18:04:31.105Z,7.65
2022-11-12T18:06:58.184Z,7.56
2022-11-12T18:09:25.029Z,7.50
2022-11-12T18:11:56.782Z,7.44
2022-11-12T18:14:24.608Z,7.51
2022-11-12T18:16:53.893Z,7.46
2022-11-12T18:19:20.658Z,7.41
2022-11-12T18:21:47.738Z,7.55
2022-11-12T18:24:16.593Z,7.44
2022-11-12T18:26:46.124Z,7.49
2022-11-12T18:29:13.265Z,7.61
2022-11-12T18:31:40.730Z,7.59
2022-11-12T18:34:13.356Z,7.73
2022-11-12T18:36:40.106Z,7.71
2022-11-12T18:39:07.148Z,7.70
2022-11-12T18:41:34.136Z,7.70
2022-11-12T18:44:01.028Z,7.79
2022-11-12T18:46:27.809Z,7.73
2022-11-12T18:48:54.483Z,7.68
2022-11-12T18:51:21.291Z,7.70
2022-11-12T18:53:48.250Z,7.82
2022-11-12T18:56:18.102Z,7.56
2022-11-12T18:58:44.857Z,7.70
2022-11-12T19:01:16.122Z,7.67
2022-11-12T19:03:43.858Z,7.62
2022-11-12T19:06:14.883Z,7.50
2022-11-12T19:08:41.973Z,7.40
2022-11-12T19:11:11.555Z,7.44
2022-11-12T19:13:38.625Z,7.43
2022-11-12T19:16:06.706Z,7.30
2022-11-12T19:18:34.086Z,7.38
2022-11-12T19:21:05.048Z,7.40
2022-11-12T19:23:31.915Z,7.38
2022-11-12T19:26:07.143Z,7.39
2022-11-12T19:28:35.580Z,7.26
2022-11-12T19:31:13.740Z,7.37
2022-11-12T19:33:40.612Z,7.30
2022-11-12T19:36:09.805Z,7.38
2022-11-12T19:38:37.468Z,7.42
2022-11-12T19:41:04.972Z,7.45
2022-11-12T19:43:32.001Z,7.57
2022-11-12T19:45:58.937Z,7.49
2022-11-12T19:48:26.877Z,7.42
2022-11-12T19:50:54.485Z,7.43
2022-11-12T19:53:21.393Z,7.40
2022-11-12T19:55:48.080Z,7.46
2022-11-12T19:58:14.877Z,7.42
2022-11-12T20:00:41.502Z,7.71
2022-11-12T20:03:08.277Z,7.72
2022-11-12T20:05:35.812Z,7.83
2022-11-12T20:08:02.832Z,7.89
2022-11-12T20:10:29.506Z,7.68
2022-11-12T20:12:56.833Z,7.76
2022-11-12T20:15:23.498Z,7.72
2022-11-12T20:17:50.087Z,7.58
2022-11-12T20:20:17.007Z,7.81
2022-11-12T20:22:43.731Z,7.68
2022-11-12T20:25:10.304Z,7.54
2022-11-12T20:27:37.011Z,7.56
2022-11-12T20:30:04.621Z,7.66
2022-11-12T20:32:31.248Z,7.72
2022-11-12T20:34:57.820Z,7.73
2022-11-12T20:37:25.173Z,7.79
2022-11-12T20:39:52.839Z,7.79
2022-11-12T20:42:19.597Z,7.77
2022-11-12T20:44:46.175Z,7.91
2022-11-12T20:47:13.308Z,8.01
2022-11-12T20:49:39.930Z,7.99
2022-11-12T20:52:06.609Z,8.01
2022-11-12T20:54:33.461Z,7.97
2022-11-12T20:57:01.304Z,7.76
2022-11-12T20:59:27.938Z,7.77
2022-11-12T21:01:57.867Z,7.67
2022-11-12T21:04:25.094Z,7.85
2022-11-12T21:06:52.088Z,7.79
2022-11-12T21:09:18.825Z,7.76
2022-11-12T21:11:45.471Z,7.69
2022-11-12T21:14:12.288Z,7.70
2022-11-12T21:16:38.952Z,7.77
2022-11-12T21:19:05.906Z,7.77
2022-11-12T21:21:32.611Z,7.84
2022-11-12T21:24:04.442Z,7.85
2022-11-12T21:26:32.545Z,7.92
2022-11-12T21:28:59.311Z,7.91
2022-11-12T21:31:29.622Z,7.97
2022-11-12T21:34:00.287Z,7.90
2022-11-12T21:36:28.282Z,7.90
2022-11-12T21:38:55.530Z,7.97
2022-11-12T21:41:26.593Z,8.00
2022-11-12T21:43:53.707Z,7.93
2022-11-12T21:46:21.677Z,7.97
2022-11-12T21:48:54.937Z,7.94
2022-11-12T21:51:27.388Z,7.97
2022-11-12T21:54:03.126Z,7.95
2022-11-12T21:56:30.743Z,8.01
2022-11-12T21:59:01.628Z,8.03
2022-11-12T22:01:35.172Z,7.89
2022-11-12T22:04:05.992Z,7.80
2022-11-12T22:06:36.688Z,7.80
2022-11-12T22:09:05.295Z,7.77
2022-11-12T22:11:32.049Z,7.66
2022-11-12T22:13:58.824Z,7.65
2022-11-12T22:16:27.619Z,7.58
2022-11-12T22:18:55.824Z,7.62
2022-11-12T22:21:28.502Z,7.65
2022-11-12T22:23:56.814Z,7.72
2022-11-12T22:26:26.478Z,7.61
2022-11-12T22:28:55.328Z,7.58
2022-11-12T22:31:27.378Z,7.66
2022-11-12T22:33:55.109Z,7.65
2022-11-12T22:36:23.852Z,7.63
2022-11-12T22:38:52.034Z,7.70
2022-11-12T22:41:21.882Z,7.74
2022-11-12T22:43:51.071Z,7.71
2022-11-12T22:46:23.083Z,7.78
2022-11-12T22:48:50.512Z,7.80
2022-11-12T22:51:21.849Z,7.77
2022-11-12T22:53:52.858Z,7.76
2022-11-12T22:56:19.469Z,7.74
2022-11-12T22:58:47.584Z,7.75
2022-11-12T23:01:21.693Z,7.73
2022-11-12T23:03:50.450Z,7.71
2022-11-12T23:06:18.055Z,7.70
2022-11-12T23:08:44.892Z,7.68
2022-11-12T23:11:16.504Z,7.60
2022-11-12T23:13:44.042Z,7.67
2022-11-12T23:16:13.869Z,7.62
2022-11-12T23:18:40.669Z,7.70
2022-11-12T23:21:16.226Z,7.73
2022-11-12T23:23:44.287Z,7.83
2022-11-12T23:26:16.177Z,7.80
2022-11-12T23:28:43.035Z,7.74
2022-11-12T23:31:24.815Z,7.86
2022-11-12T23:33:54.002Z,7.87
2022-11-12T23:36:22.169Z,7.62
2022-11-12T23:38:48.964Z,7.79
2022-11-12T23:41:19.297Z,7.66
2022-11-12T23:43:46.573Z,7.74
2022-11-12T23:46:13.365Z,7.72
2022-11-12T23:48:40.682Z,7.69
2022-11-12T23:51:11.066Z,7.65
2022-11-12T23:53:39.080Z,7.62
2022-11-12T23:56:09.651Z,7.63
2022-11-12T23:58:37.613Z,7.59
